createdAt,value
2022-09-06T00:01:49.444Z,60.65
2022-09-06T00:04:16.563Z,59.88
2022-09-06T00:06:43.649Z,59.46
2022-09-06T00:09:10.750Z,60.12
2022-09-06T00:11:38.467Z,60.14
2022-09-06T00:14:05.530Z,60.20
2022-09-06T00:16:32.517Z,60.28
2022-09-06T00:18:59.919Z,60.42
2022-09-06T00:21:29.925Z,60.87
2022-09-06T00:23:57.476Z,60.42
2022-09-06T00:26:27.209Z,60.02
2022-09-06T00:28:54.313Z,60.03
2022-09-06T00:31:23.786Z,59.89
2022-09-06T00:33:51.848Z,59.79
2022-09-06T00:36:19.803Z,59.94
2022-09-06T00:38:46.993Z,60.18
2022-09-06T00:41:15.733Z,60.05
2022-09-06T00:43:43.705Z,59.94
2022-09-06T00:46:15.871Z,59.75
2022-09-06T00:48:43.510Z,59.48
2022-09-06T00:51:13.282Z,59.35
2022-09-06T00:53:40.503Z,59.93
2022-09-06T00:56:08.640Z,59.48
2022-09-06T00:58:36.662Z,59.93
2022-09-06T01:01:05.306Z,60.24
2022-09-06T01:03:33.042Z,60.64
2022-09-06T01:06:12.401Z,60.20
2022-09-06T01:09:02.206Z,60.32
2022-09-06T01:11:38.191Z,59.80
2022-09-06T01:14:26.940Z,60.12
2022-09-06T01:17:15.150Z,60.08
2022-09-06T01:20:04.311Z,60.08
2022-09-06T01:23:09.385Z,60.06
2022-09-06T01:25:48.570Z,60.52
2022-09-06T01:28:31.181Z,60.44
2022-09-06T01:31:10.571Z,60.38
2022-09-06T01:33:46.451Z,60.29
2022-09-06T01:36:23.397Z,60.39
2022-09-06T01:38:50.845Z,60.34
2022-09-06T01:41:17.825Z,59.85
2022-09-06T01:43:50.968Z,59.78
2022-09-06T01:46:35.757Z,59.88
2022-09-06T01:49:23.149Z,59.83
2022-09-06T01:52:16.404Z,59.99
2022-09-06T01:55:14.316Z,60.14
2022-09-06T01:57:55.790Z,59.98
2022-09-06T02:00:23.877Z,60.13
2022-09-06T02:03:16.456Z,60.12
2022-09-06T02:05:46.556Z,60.29
2022-09-06T02:08:20.597Z,60.12
2022-09-06T02:10:59.615Z,60.08
2022-09-06T02:13:32.242Z,59.51
2022-09-06T02:16:03.079Z,59.17
2022-09-06T02:18:38.855Z,59.32
2022-09-06T02:21:07.091Z,59.33
2022-09-06T02:23:38.735Z,59.48
2022-09-06T02:26:11.409Z,59.25
2022-09-06T02:28:38.894Z,59.30
2022-09-06T02:31:21.646Z,59.29
2022-09-06T02:33:50.962Z,58.91
2022-09-06T02:36:18.851Z,58.64
2022-09-06T02:38:46.216Z,58.69
2022-09-06T02:41:16.207Z,58.65
2022-09-06T02:43:43.740Z,58.61
2022-09-06T02:46:12.780Z,58.63
2022-09-06T02:48:39.767Z,59.25
2022-09-06T02:51:08.842Z,58.62
2022-09-06T02:53:36.227Z,58.45
2022-09-06T02:56:03.529Z,59.02
2022-09-06T02:58:31.238Z,59.21
2022-09-06T03:00:58.417Z,58.79
2022-09-06T03:03:26.118Z,58.43
2022-09-06T03:05:54.482Z,58.85
2022-09-06T03:08:33.680Z,59.11
2022-09-06T03:11:10.868Z,58.50
2022-09-06T03:13:40.190Z,59.01
2022-09-06T03:16:07.338Z,58.99
2022-09-06T03:18:34.326Z,59.06
2022-09-06T03:21:01.490Z,58.66
2022-09-06T03:23:29.825Z,58.76
2022-09-06T03:25:57.126Z,58.45
2022-09-06T03:28:24.493Z,58.97
2022-09-06T03:30:53.998Z,58.79
2022-09-06T03:33:21.334Z,58.50
2022-09-06T03:35:49.650Z,58.37
2022-09-06T03:38:17.485Z,58.46
2022-09-06T03:40:46.495Z,58.23
2022-09-06T03:43:15.069Z,58.10
2022-09-06T03:45:46.959Z,58.81
2022-09-06T03:48:14.769Z,58.05
2022-09-06T03:50:46.438Z,58.82
2022-09-06T03:53:14.239Z,59.20
2022-09-06T03:55:45.376Z,59.58
2022-09-06T03:58:12.612Z,59.69
2022-09-06T04:00:39.765Z,59.83
2022-09-06T04:03:07.115Z,60.00
2022-09-06T04:05:34.284Z,59.51
2022-09-06T04:08:01.652Z,60.08
2022-09-06T04:10:28.888Z,60.10
2022-09-06T04:12:55.937Z,59.48
2022-09-06T04:15:23.140Z,59.74
2022-09-06T04:17:50.398Z,59.18
2022-09-06T04:20:17.582Z,59.28
2022-09-06T04:22:44.629Z,58.86
2022-09-06T04:25:13.831Z,59.06
2022-09-06T04:27:40.937Z,58.34
2022-09-06T04:30:09.666Z,57.79
2022-09-06T04:32:36.674Z,56.52
2022-09-06T04:35:04.090Z,56.99
2022-09-06T04:37:31.150Z,57.05
2022-09-06T04:39:58.424Z,57.00
2022-09-06T04:42:25.630Z,57.02
2022-09-06T04:44:52.748Z,56.58
2022-09-06T04:47:20.081Z,56.65
2022-09-06T04:49:49.595Z,56.21
2022-09-06T04:52:17.183Z,55.92
2022-09-06T04:54:44.294Z,55.73
2022-09-06T04:57:11.483Z,55.85
2022-09-06T04:59:38.535Z,56.25
2022-09-06T05:02:05.596Z,55.86
2022-09-06T05:04:32.651Z,56.07
2022-09-06T05:07:02.164Z,56.15
2022-09-06T05:09:29.444Z,56.28
2022-09-06T05:11:56.727Z,56.17
2022-09-06T05:14:24.283Z,56.41
2022-09-06T05:16:51.649Z,56.78
2022-09-06T05:19:23.505Z,56.09
2022-09-06T05:21:53.440Z,56.51
2022-09-06T05:24:20.450Z,56.41
2022-09-06T05:26:47.675Z,57.00
2022-09-06T05:29:14.763Z,56.37
2022-09-06T05:31:41.900Z,56.07
2022-09-06T05:34:08.998Z,56.24
2022-09-06T05:36:36.542Z,56.33
2022-09-06T05:39:03.774Z,55.31
2022-09-06T05:41:31.913Z,54.74
2022-09-06T05:43:58.937Z,54.36
2022-09-06T05:46:26.800Z,54.65
2022-09-06T05:49:01.289Z,53.97
2022-09-06T05:51:28.586Z,54.06
2022-09-06T05:53:55.694Z,53.46
2022-09-06T05:56:23.343Z,53.55
2022-09-06T05:58:50.469Z,52.97
2022-09-06T06:01:28.807Z,52.90
2022-09-06T06:04:02.175Z,52.67
2022-09-06T06:06:33.668Z,52.41
2022-09-06T06:09:00.850Z,52.33
2022-09-06T06:11:28.501Z,51.62
2022-09-06T06:13:55.847Z,51.86
2022-09-06T06:16:23.472Z,51.56
2022-09-06T06:18:52.550Z,51.25
2022-09-06T06:21:24.863Z,50.90
2022-09-06T06:24:13.157Z,50.62
2022-09-06T06:26:42.703Z,50.08
2022-09-06T06:29:12.004Z,50.43
2022-09-06T06:31:39.484Z,50.30
2022-09-06T06:34:07.538Z,50.02
2022-09-06T06:36:36.060Z,49.78
2022-09-06T06:39:08.552Z,49.94
2022-09-06T06:41:37.980Z,49.62
2022-09-06T06:44:23.831Z,49.27
2022-09-06T06:46:50.815Z,49.37
2022-09-06T06:49:17.858Z,49.10
2022-09-06T06:51:44.967Z,48.99
2022-09-06T06:54:12.031Z,49.20
2022-09-06T06:56:41.153Z,48.97
2022-09-06T06:59:08.701Z,49.70
2022-09-06T07:01:36.448Z,50.83
2022-09-06T07:04:04.874Z,51.71
2022-09-06T07:12:24.308Z,51.20
2022-09-06T07:14:51.606Z,50.12
2022-09-06T07:17:18.542Z,49.78
2022-09-06T07:22:32.712Z,48.13
2022-09-06T07:25:28.987Z,46.29
2022-09-06T07:28:05.715Z,46.37
2022-09-06T07:30:37.177Z,46.67
2022-09-06T07:33:08.018Z,46.43
2022-09-06T07:35:35.067Z,47.34
2022-09-06T07:38:02.442Z,46.08
2022-09-06T07:40:31.175Z,45.29
2022-09-06T07:42:59.005Z,44.61
2022-09-06T07:45:26.947Z,43.02
2022-09-06T07:53:15.055Z,41.58
2022-09-06T07:55:44.653Z,41.54
2022-09-06T07:58:11.804Z,43.09
2022-09-06T08:00:41.506Z,42.86
2022-09-06T08:03:11.258Z,42.66
2022-09-06T08:11:13.465Z,42.70
2022-09-06T08:13:40.466Z,42.31
2022-09-06T08:16:10.383Z,41.08
2022-09-06T08:18:38.099Z,41.63
2022-09-06T08:21:12.663Z,42.95
2022-09-06T08:23:44.282Z,44.93
2022-09-06T08:26:12.048Z,46.46
2022-09-06T08:28:39.293Z,47.56
2022-09-06T08:31:17.761Z,48.99
2022-09-06T08:33:45.003Z,48.39
2022-09-06T08:36:12.067Z,47.07
2022-09-06T08:38:39.431Z,43.45
2022-09-06T08:41:17.055Z,41.94
2022-09-06T08:46:52.674Z,40.52
2022-09-06T08:49:22.575Z,41.08
2022-09-06T08:51:49.561Z,41.79
2022-09-06T08:54:40.658Z,42.25
2022-09-06T08:57:52.414Z,41.17
2022-09-06T09:00:20.671Z,40.78
2022-09-06T09:02:53.872Z,40.74
2022-09-06T09:05:33.927Z,41.03
2022-09-06T09:08:06.981Z,41.91
2022-09-06T09:10:52.770Z,42.67
2022-09-06T09:13:29.642Z,43.36
2022-09-06T09:15:56.782Z,42.97
2022-09-06T09:18:28.233Z,43.43
2022-09-06T09:20:55.511Z,42.67
2022-09-06T09:23:22.578Z,42.63
2022-09-06T09:25:52.874Z,40.61
2022-09-06T09:28:23.799Z,40.61
2022-09-06T09:30:56.392Z,41.63
2022-09-06T09:33:32.926Z,43.07
2022-09-06T09:36:02.617Z,43.99
2022-09-06T09:38:33.000Z,43.23
2022-09-06T09:41:08.154Z,44.18
2022-09-06T09:43:41.569Z,44.93
2022-09-06T09:46:13.367Z,44.93
2022-09-06T09:48:45.096Z,45.18
2022-09-06T09:51:27.394Z,46.07
2022-09-06T09:54:04.038Z,45.76
2022-09-06T09:56:52.925Z,44.83
2022-09-06T09:59:27.103Z,46.06
2022-09-06T10:02:03.080Z,47.90
2022-09-06T10:04:46.037Z,49.57
2022-09-06T10:07:26.530Z,51.09
2022-09-06T10:10:13.010Z,51.74
2022-09-06T10:12:42.702Z,52.42
2022-09-06T10:15:32.511Z,51.83
2022-09-06T10:17:59.588Z,51.67
2022-09-06T10:20:42.420Z,50.25
2022-09-06T10:26:25.848Z,46.64
2022-09-06T10:29:03.374Z,47.10
2022-09-06T10:31:51.034Z,46.50
2022-09-06T10:34:23.259Z,46.78
2022-09-06T10:37:21.130Z,47.65
2022-09-06T10:40:20.221Z,47.65
2022-09-06T10:42:53.238Z,48.38
2022-09-06T10:45:37.314Z,49.06
2022-09-06T10:48:17.418Z,49.38
2022-09-06T10:51:01.753Z,49.89
2022-09-06T10:53:38.338Z,49.98
2022-09-06T10:56:13.360Z,49.40
2022-09-06T11:01:44.828Z,49.53
2022-09-06T11:04:29.489Z,50.10
2022-09-06T11:07:01.200Z,50.01
2022-09-06T11:09:38.284Z,49.99
2022-09-06T11:12:15.497Z,50.44
2022-09-06T11:14:42.794Z,50.15
2022-09-06T11:17:22.265Z,49.82
2022-09-06T11:19:58.799Z,49.84
2022-09-06T11:23:16.972Z,50.19
2022-09-06T11:26:04.588Z,50.63
2022-09-06T11:28:38.648Z,50.32
2022-09-06T11:31:08.909Z,50.53
2022-09-06T11:33:39.838Z,50.90
2022-09-06T11:36:59.489Z,50.22
2022-09-06T11:43:02.648Z,50.64
2022-09-06T11:45:46.555Z,50.57
2022-09-06T11:48:26.703Z,51.24
2022-09-06T11:50:53.784Z,51.68
2022-09-06T11:53:31.196Z,52.41
2022-09-06T11:56:01.209Z,52.79
2022-09-06T11:59:02.434Z,52.82
2022-09-06T12:01:29.365Z,53.17
2022-09-06T12:07:04.016Z,51.93
2022-09-06T12:09:36.487Z,52.06
2022-09-06T12:12:04.774Z,52.40
2022-09-06T12:14:40.498Z,52.56
2022-09-06T12:17:08.876Z,52.92
2022-09-06T12:19:58.005Z,53.55
2022-09-06T12:22:28.931Z,54.06
2022-09-06T12:25:18.318Z,55.17
2022-09-06T12:27:56.427Z,56.15
2022-09-06T12:30:42.179Z,57.84
2022-09-06T12:33:31.757Z,58.83
2022-09-06T12:36:17.374Z,59.45
2022-09-06T12:39:03.383Z,59.42
2022-09-06T12:41:40.433Z,60.65
2022-09-06T12:44:11.134Z,61.24
2022-09-06T12:46:40.121Z,61.25
2022-09-06T12:49:12.942Z,61.49
2022-09-06T12:51:41.423Z,61.47
2022-09-06T12:54:26.660Z,60.42
2022-09-06T12:56:54.035Z,61.04
2022-09-06T12:59:27.356Z,60.81
2022-09-06T13:02:07.583Z,61.19
2022-09-06T13:04:41.265Z,60.85
2022-09-06T13:07:15.586Z,60.00
2022-09-06T13:09:47.251Z,60.77
2022-09-06T13:12:37.149Z,61.37
2022-09-06T13:15:11.915Z,60.86
2022-09-06T13:17:39.431Z,61.90
2022-09-06T13:20:22.261Z,60.63
2022-09-06T13:22:51.764Z,61.69
2022-09-06T13:25:22.033Z,61.70
2022-09-06T13:27:53.232Z,61.37
2022-09-06T13:30:49.649Z,60.59
2022-09-06T13:33:26.449Z,61.34
2022-09-06T13:36:08.499Z,61.37
2022-09-06T13:38:38.606Z,61.81
2022-09-06T13:41:25.098Z,61.59
2022-09-06T13:44:17.310Z,61.02
2022-09-06T13:46:44.620Z,60.54
2022-09-06T13:49:11.984Z,60.62
2022-09-06T13:51:43.387Z,61.42
2022-09-06T13:54:13.058Z,61.16
2022-09-06T13:56:41.845Z,61.32
2022-09-06T13:59:12.590Z,61.14
2022-09-06T14:01:44.406Z,61.49
2022-09-06T14:04:19.711Z,61.89
2022-09-06T14:06:47.491Z,62.38
2022-09-06T14:09:14.969Z,62.55
2022-09-06T14:11:47.451Z,63.33
2022-09-06T14:14:34.504Z,61.90
2022-09-06T14:17:01.625Z,61.52
2022-09-06T14:22:10.371Z,61.24
2022-09-06T14:24:37.614Z,61.41
2022-09-06T14:27:07.170Z,61.40
2022-09-06T14:29:35.352Z,61.85
2022-09-06T14:32:02.775Z,61.67
2022-09-06T14:34:30.147Z,61.10
2022-09-06T14:36:57.197Z,61.16
2022-09-06T14:39:24.388Z,59.86
2022-09-06T14:41:52.173Z,59.93
2022-09-06T14:44:19.354Z,60.97
2022-09-06T14:46:47.877Z,60.21
2022-09-06T14:49:15.101Z,60.10
2022-09-06T14:51:45.970Z,59.96
2022-09-06T14:54:16.057Z,60.07
2022-09-06T14:56:44.370Z,59.63
2022-09-06T14:59:13.243Z,59.90
2022-09-06T15:01:43.145Z,59.09
2022-09-06T15:04:11.977Z,58.37
2022-09-06T15:06:50.530Z,59.01
2022-09-06T15:09:18.659Z,58.90
2022-09-06T15:11:51.904Z,59.19
2022-09-06T15:14:25.772Z,58.75
2022-09-06T15:16:58.241Z,58.80
2022-09-06T15:19:33.229Z,58.35
2022-09-06T15:22:00.805Z,57.95
2022-09-06T15:24:31.429Z,57.79
2022-09-06T15:27:01.780Z,57.40
2022-09-06T15:29:36.566Z,58.12
2022-09-06T15:32:03.730Z,56.65
2022-09-06T15:34:33.976Z,56.75
2022-09-06T15:37:01.851Z,56.85
2022-09-06T15:39:36.586Z,56.33
2022-09-06T15:42:04.429Z,56.63
2022-09-06T15:44:31.813Z,55.67
2022-09-06T15:46:59.467Z,56.63
2022-09-06T15:49:32.301Z,56.73
2022-09-06T15:52:01.936Z,56.04
2022-09-06T15:54:48.099Z,56.15
2022-09-06T15:57:17.443Z,56.64
2022-09-06T15:59:45.089Z,55.57
2022-09-06T16:02:13.077Z,56.04
2022-09-06T16:04:41.336Z,55.24
2022-09-06T16:07:10.067Z,54.89
2022-09-06T16:09:37.257Z,55.13
2022-09-06T16:12:04.884Z,54.13
2022-09-06T16:14:32.222Z,54.82
2022-09-06T16:16:59.468Z,53.44
2022-09-06T16:19:26.625Z,54.02
2022-09-06T16:21:53.907Z,53.15
2022-09-06T16:24:22.425Z,53.80
2022-09-06T16:26:49.803Z,53.31
2022-09-06T16:29:19.285Z,53.82
2022-09-06T16:31:49.241Z,53.38
2022-09-06T16:34:17.265Z,53.57
2022-09-06T16:36:44.687Z,53.55
2022-09-06T16:39:12.953Z,53.62
2022-09-06T16:41:50.490Z,53.74
2022-09-06T16:44:19.003Z,54.68
2022-09-06T16:46:48.303Z,54.90
2022-09-06T16:49:17.273Z,54.45
2022-09-06T16:51:47.602Z,54.62
2022-09-06T16:54:16.368Z,54.88
2022-09-06T16:56:43.588Z,54.91
2022-09-06T16:59:11.902Z,55.21
2022-09-06T17:01:42.023Z,56.00
2022-09-06T17:04:09.934Z,55.90
2022-09-06T17:06:44.650Z,56.72
2022-09-06T17:09:14.766Z,56.55
2022-09-06T17:11:42.862Z,56.37
2022-09-06T17:14:10.460Z,56.88
2022-09-06T17:16:56.193Z,57.16
2022-09-06T17:19:27.782Z,57.03
2022-09-06T17:21:55.204Z,57.29
2022-09-06T17:24:22.899Z,57.18
2022-09-06T17:26:50.379Z,57.67
2022-09-06T17:29:20.117Z,57.03
2022-09-06T17:31:48.512Z,56.75
2022-09-06T17:34:16.759Z,56.56
2022-09-06T17:36:44.157Z,56.98
2022-09-06T17:39:15.233Z,56.70
2022-09-06T17:41:49.895Z,56.14
2022-09-06T17:44:19.773Z,56.24
2022-09-06T17:47:08.885Z,56.05
2022-09-06T17:49:35.436Z,56.36
2022-09-06T17:52:02.590Z,55.78
2022-09-06T17:54:31.916Z,55.87
2022-09-06T17:56:59.133Z,55.47
2022-09-06T17:59:26.261Z,55.87
2022-09-06T18:01:53.454Z,56.49
2022-09-06T18:04:24.179Z,56.67
2022-09-06T18:06:51.955Z,55.96
2022-09-06T18:09:19.111Z,55.97
2022-09-06T18:11:47.205Z,56.60
2022-09-06T18:14:17.983Z,55.87
2022-09-06T18:16:49.495Z,55.42
2022-09-06T18:19:18.571Z,55.34
2022-09-06T18:21:46.967Z,55.70
2022-09-06T18:24:17.350Z,56.02
2022-09-06T18:26:45.001Z,55.60
2022-09-06T18:29:15.095Z,55.35
2022-09-06T18:31:45.395Z,54.72
2022-09-06T18:34:13.081Z,55.44
2022-09-06T18:36:40.801Z,55.62
2022-09-06T18:39:08.559Z,55.64
2022-09-06T18:41:54.150Z,55.98
2022-09-06T18:44:22.584Z,55.21
2022-09-06T18:46:50.152Z,55.30
2022-09-06T18:49:17.600Z,55.16
2022-09-06T18:51:45.755Z,55.91
2022-09-06T18:54:13.993Z,55.65
2022-09-06T18:56:41.513Z,55.58
2022-09-06T18:59:10.650Z,56.06
2022-09-06T19:01:38.439Z,55.63
2022-09-06T19:04:07.460Z,55.71
2022-09-06T19:06:37.554Z,55.75
2022-09-06T19:09:09.186Z,55.91
2022-09-06T19:11:36.584Z,56.74
2022-09-06T19:14:05.424Z,55.96
2022-09-06T19:16:32.830Z,55.99
2022-09-06T19:19:06.061Z,56.29
2022-09-06T19:21:37.956Z,55.58
2022-09-06T19:24:10.770Z,56.23
2022-09-06T19:26:40.673Z,55.95
2022-09-06T19:29:11.923Z,55.73
2022-09-06T19:31:39.711Z,55.87
2022-09-06T19:34:07.721Z,55.85
2022-09-06T19:36:35.203Z,56.42
2022-09-06T19:39:07.597Z,55.89
2022-09-06T19:41:38.395Z,55.73
2022-09-06T19:44:09.142Z,56.27
2022-09-06T19:46:37.659Z,56.18
2022-09-06T19:49:08.218Z,56.28
2022-09-06T19:51:36.485Z,55.88
2022-09-06T19:54:04.744Z,56.03
2022-09-06T19:56:34.416Z,55.43
2022-09-06T19:59:04.830Z,56.25
2022-09-06T20:01:33.830Z,56.53
2022-09-06T20:04:02.946Z,56.06
2022-09-06T20:06:33.139Z,56.38
2022-09-06T20:09:02.024Z,56.00
2022-09-06T20:11:33.259Z,56.36
2022-09-06T20:14:00.707Z,56.22
2022-09-06T20:16:30.829Z,55.86
2022-09-06T20:19:00.213Z,55.85
2022-09-06T20:21:28.562Z,55.44
2022-09-06T20:23:58.089Z,55.15
2022-09-06T20:26:27.500Z,55.69
2022-09-06T20:29:00.184Z,55.48
2022-09-06T20:31:29.525Z,55.19
2022-09-06T20:33:59.011Z,55.62
2022-09-06T20:36:26.284Z,55.62
2022-09-06T20:38:53.504Z,56.37
2022-09-06T20:41:25.827Z,56.41
2022-09-06T20:43:55.376Z,55.50
2022-09-06T20:46:24.554Z,55.91
2022-09-06T20:48:52.412Z,55.75
2022-09-06T20:51:22.007Z,55.83
2022-09-06T20:53:55.487Z,55.92
2022-09-06T20:56:29.011Z,55.24
2022-09-06T20:59:01.210Z,55.75
2022-09-06T21:01:32.106Z,55.16
2022-09-06T21:04:00.699Z,55.95
2022-09-06T21:06:31.204Z,54.98
2022-09-06T21:08:58.251Z,55.48
2022-09-06T21:11:26.077Z,55.81
2022-09-06T21:13:59.243Z,56.05
2022-09-06T21:16:28.529Z,55.25
2022-09-06T21:19:01.457Z,55.96
2022-09-06T21:21:31.381Z,56.31
2022-09-06T21:24:00.761Z,54.90
2022-09-06T21:26:31.449Z,55.55
2022-09-06T21:28:59.028Z,55.05
2022-09-06T21:31:31.925Z,54.98
2022-09-06T21:34:05.129Z,55.22
2022-09-06T21:36:35.556Z,55.43
2022-09-06T21:39:05.981Z,55.06
2022-09-06T21:41:36.769Z,54.93
2022-09-06T21:44:05.614Z,55.96
2022-09-06T21:46:35.537Z,55.32
2022-09-06T21:49:05.144Z,55.82
2022-09-06T21:51:32.800Z,55.96
2022-09-06T21:54:03.603Z,56.52
2022-09-06T21:56:32.648Z,56.47
2022-09-06T21:59:00.308Z,56.27
2022-09-06T22:01:29.661Z,56.99
2022-09-06T22:03:56.824Z,56.79
2022-09-06T22:06:26.195Z,57.42
2022-09-06T22:08:54.134Z,57.36
2022-09-06T22:11:24.433Z,57.26
2022-09-06T22:13:52.096Z,57.35
2022-09-06T22:16:22.804Z,57.87
2022-09-06T22:18:50.146Z,57.71
2022-09-06T22:21:20.404Z,58.08
2022-09-06T22:23:56.282Z,57.86
2022-09-06T22:26:25.337Z,58.17
2022-09-06T22:29:12.393Z,57.78
2022-09-06T22:31:40.286Z,57.95
2022-09-06T22:34:07.728Z,58.34
2022-09-06T22:36:36.367Z,58.44
2022-09-06T22:39:03.641Z,58.40
2022-09-06T22:41:32.461Z,58.42
2022-09-06T22:44:00.911Z,58.57
2022-09-06T22:46:28.759Z,57.80
2022-09-06T22:48:55.887Z,57.89
2022-09-06T22:51:23.150Z,58.21
2022-09-06T22:53:50.846Z,58.25
2022-09-06T22:56:17.921Z,58.17
2022-09-06T22:58:45.045Z,58.08
2022-09-06T23:01:14.252Z,58.40
2022-09-06T23:03:42.371Z,58.04
2022-09-06T23:06:10.895Z,59.01
2022-09-06T23:08:40.946Z,59.41
2022-09-06T23:11:13.090Z,59.28
2022-09-06T23:13:44.050Z,59.51
2022-09-06T23:16:17.397Z,59.83
2022-09-06T23:18:45.046Z,59.90
2022-09-06T23:21:15.121Z,61.07
2022-09-06T23:23:42.519Z,60.53
2022-09-06T23:26:15.833Z,61.15
2022-09-06T23:28:43.576Z,61.11
2022-09-06T23:31:14.022Z,60.64
2022-09-06T23:33:41.944Z,60.80
2022-09-06T23:36:14.838Z,60.86
2022-09-06T23:38:42.763Z,61.77
2022-09-06T23:41:10.681Z,61.65
2022-09-06T23:43:39.529Z,61.26
2022-09-06T23:46:07.478Z,61.91
2022-09-06T23:48:35.210Z,62.06
2022-09-06T23:51:02.511Z,61.88
2022-09-06T23:53:29.995Z,62.37
2022-09-06T23:55:57.307Z,62.37
2022-09-06T23:58:24.626Z,62.63
